Airfield :
LOGIN :

Register | Disclaimer

   EN    FR    IT 

 










Legend :    VFR   Marginal VFR   IFR   Intensive IFR   Very Intensive IFR
Visi :
Ceiling :
>= 8 km
>= 3000ft
5 to 8 km
1000 to 3000 ft
1500m to 5 km
500 to 1000 ft
800 to 1500m
200 to 500 ft
< 800m
< 200 ft
Symbols :   Thunderstorms  Fog  Heavy snow  Heavy precipitations  Wind > 20 kt
SIGMETs :     Misc.  Thunderstorms  Icing  Turbulence  Mountain Waves  Volcanic Ashes






- Airport Elevation : 75 ft
- IATA code : MRH


EGYM - RAF Marham

CURRENT METAR :
  • 241250Z AUTO 21006KT 9999 -RA SCT014/// 08/03 Q0995

EXPIRED METARs :
  • 241220Z AUTO 21006KT 9999 FEW012/// 07/03 Q0995
  • 241150Z AUTO 21006KT 9999 NCD 07/04 Q0995
  • 241120Z AUTO 22005KT 8000 FEW006/// 06/04 Q0995
  • 241050Z AUTO 22005KT 9999 FEW006/// 05/04 Q0995
  • 241020Z AUTO 21007KT 9999 SCT004/// 04/03 Q0994
  • 240950Z AUTO 21005KT 9000 BR FEW003/// 04/03 Q0994
  • 240920Z AUTO 20004KT 7000 BR SCT003/// 02/02 Q0994
  • 240850Z AUTO 19004KT 5000 BR SCT003/// 01/01 Q0994
  • 240820Z AUTO 18003KT 4100 BR FEW003/// 01/00 Q0993

Expired Forecast.



MET'MAP, your aeronautical weather chart ! - Copyright ORBIFLY December 2007 - Disclaimer

ORBIFLY MET'MAP TEAM :

Programming & Development : Alexandra Zaïnal
Original concept : Baudouin d'Aumeries
Technical & hardware support : Manuel Goepfert
Assistance : Marc-Olivier Méhu




SOURCES & CREDITS :

   NOAA